Main page
METAR-TAF:

METAR-TAF

Airports :

Tunis–Carthage International Airport

Tunis, Tunisia

latitude: 36-50N, longitude: 010-14E, elevation: 3 m

Current weather observation

The report was made 39 minutes ago, at 00:00 UTC
Wind 7 kt from the West/Northwest
Temperature 15°C
Humidity 94%
Pressure 1025 hPa
Visibility 10 km or more
Few clouds at a height of 2000 ft

METAR: DTTA 130000Z 30007KT 9999 FEW020 15/14 Q1025

Time: 01:39 (00:39 UTC)

Forecast

The report was made 1 hour and 39 minutes ago, at 23:00 UTC
Forecast valid from 13 at 00 UTC to 13 at 24 UTC
Wind 8 kt from the Northwest
Visibility 10 km or more
Scattered clouds at a height of 2000 ft
Becoming
from 13 at 10 UTC to 13 at 12 UTC
Wind 10 kt from the Northeast

TAF: DTTA 122300Z 1300/1324 32008KT 9999 SCT020 BECMG 1310/1312 05010KT

Weather observations and forecasts of more than 4000 airports (METAR and TAF reports).

The available stations are represented by yellow and red dots on the map.

Hover mouse over dot to see the name of the station.

Then click to see weather observations and forecasts.

To change the map : click on the green buttons with a black cross to zoom in, on the green button with a dash to zoom out, or on the green arrows for adjacent maps.


METAR-TAF: